Hauptseite
METAR-TAF:

METAR-TAF

Flughäfen :

Flughafen Derry

Derry, Nordirland

Breite: 55-03N, Länge: 007-09W, Höhe: 9 m

Beobachtung

Neuester Wetterbericht von vor 14 Stunden und 11 Minuten, um 16:50 UTC
Wind 9 kt aus Ost/Nordost
Temperatur 13°C
Luftfeuchtigkeit 88%
Luftdruck 1028 hPa
Sichtweite: 9000 m
Aufgelockert bewölkt in der Höhe von 400 ft
Nebel in der Nähe

METAR: EGAE 201650Z 06009KT 9000 VCFG SCT004 13/11 Q1028

Zeit: 08:01 (07:01 UTC)

Prognose

Neuester Wetterbericht von vor 14 Stunden und 3 Minuten, um 16:58 UTC
Gültige Prognose vom 20 um 18 UTC bis 20 um 21 UTC
Wind 5 kt aus Ost/Nordost
Sichtweite: 8000 m
Aufgelockert bewölkt in der Höhe von 400 ft
Wahrscheinlichkeit 30%
vom 20 um 18 UTC bis 20 um 21 UTC
Sichtweite: 4000 m
Durchbrochene Bewölkung in der Höhe von 400 ft
feuchter Dunst

TAF: EGAE 201658Z 2018/2021 06005KT 8000 SCT004 PROB30 2018/2021 4000 BR BKN004

Wetterbeobachtungen und Prognosen von mehr als 4000 Flughäfen (METAR und TAF Bericht).

Die verfügbaren Stationen werden durch gelbe und rote Markierungen auf der Karte dargestellt.

Führen Sie die Maus auf sie, um den Namen der Station zu sehen.

Darauf klicken, um die Beobachtung von Wetterbeobachtungen und Prognosen zu sehen.

Um die Karte zu ändern : klicken Sie auf den grünen Tasten mit einem schwarzen Kreuz Zum Vergrößern, auf den grünen Button mit einem Gedankenstrich zu verkleinern, oder auf die grünen Pfeile für benachbarte Karten.


METAR-TAF: